createdAt,value
2019-05-06T17:59:53.586Z,14.83
2019-05-06T18:01:03.175Z,16.23
2019-05-06T18:02:14.351Z,14.43
2019-05-06T18:03:24.922Z,13.88
2019-05-06T18:04:31.398Z,14.87
2019-05-06T18:05:42.011Z,18.00
2019-05-06T18:06:46.211Z,20.52
2019-05-06T18:07:54.114Z,16.95
2019-05-06T18:09:03.245Z,20.77
2019-05-06T18:10:11.991Z,31.05
2019-05-06T18:11:22.821Z,26.10
2019-05-06T18:12:33.172Z,19.40
2019-05-06T18:13:38.249Z,19.15
2019-05-06T18:14:53.354Z,16.75
2019-05-06T18:16:05.234Z,16.70
2019-05-06T18:17:12.304Z,18.02
2019-05-06T18:18:19.194Z,16.40
2019-05-06T18:19:26.913Z,17.02
2019-05-06T18:20:33.539Z,16.50
2019-05-06T18:21:41.665Z,16.32
2019-05-06T18:22:49.212Z,16.37
2019-05-06T18:23:55.666Z,14.65
2019-05-06T18:25:02.224Z,14.15
2019-05-06T18:26:09.050Z,15.20
2019-05-06T18:27:22.625Z,14.63
2019-05-06T18:28:32.371Z,20.20
2019-05-06T18:29:42.327Z,21.65
2019-05-06T18:30:52.140Z,22.32
2019-05-06T18:31:55.718Z,22.55
2019-05-06T18:33:02.291Z,15.43
2019-05-06T18:34:09.117Z,15.03
2019-05-06T18:35:13.508Z,14.78
2019-05-06T18:36:19.329Z,14.45
2019-05-06T18:37:34.144Z,12.68
2019-05-06T18:38:46.197Z,14.25
2019-05-06T18:39:55.593Z,13.80
2019-05-06T18:41:12.635Z,17.30
2019-05-06T18:42:43.000Z,17.67
2019-05-06T18:43:48.996Z,21.10
2019-05-06T18:45:21.997Z,16.65
2019-05-06T18:46:34.816Z,16.30
2019-05-06T18:48:21.839Z,13.43
2019-05-06T18:49:29.856Z,13.10
2019-05-06T18:50:42.431Z,15.93
2019-05-06T18:51:54.125Z,14.73
2019-05-06T18:53:02.440Z,11.75
2019-05-06T18:54:14.894Z,13.15
2019-05-06T18:55:24.186Z,12.65
2019-05-06T18:56:33.196Z,12.03
2019-05-06T18:57:42.306Z,12.68
2019-05-06T18:58:52.705Z,11.90
2019-05-06T19:00:03.260Z,11.90
2019-05-06T19:01:14.757Z,12.93
2019-05-06T19:02:26.708Z,10.95
2019-05-06T19:03:44.593Z,11.40
2019-05-06T19:05:17.079Z,10.75
2019-05-06T19:06:26.569Z,11.95
2019-05-06T19:07:34.444Z,14.87
2019-05-06T19:08:52.746Z,17.35
2019-05-06T19:10:04.946Z,16.80
2019-05-06T19:11:11.998Z,17.92
2019-05-06T19:12:41.363Z,17.05
2019-05-06T19:13:52.989Z,16.02
2019-05-06T19:15:05.949Z,16.70
2019-05-06T19:16:12.780Z,17.00
2019-05-06T19:17:19.979Z,23.90
2019-05-06T19:18:25.058Z,34.78
2019-05-06T19:19:36.006Z,33.95
2019-05-06T19:20:46.494Z,23.25
2019-05-06T19:21:58.609Z,18.70
2019-05-06T19:23:03.614Z,30.45
2019-05-06T19:24:12.165Z,29.35
2019-05-06T19:25:15.693Z,21.05
2019-05-06T19:26:23.398Z,28.73
2019-05-06T19:27:29.338Z,24.05
2019-05-06T19:28:38.641Z,23.32
2019-05-06T19:29:54.631Z,20.82
2019-05-06T19:31:02.959Z,25.02
2019-05-06T19:32:07.034Z,21.68
2019-05-06T19:33:12.589Z,19.30
2019-05-06T19:34:23.599Z,14.55
2019-05-06T19:35:28.941Z,15.48
2019-05-06T19:36:34.911Z,15.80
2019-05-06T19:37:40.928Z,17.90
2019-05-06T19:38:45.720Z,18.20
2019-05-06T19:39:52.506Z,23.55
2019-05-06T19:41:01.905Z,25.17
2019-05-06T19:42:08.105Z,22.17
2019-05-06T19:43:21.987Z,48.15
2019-05-06T19:44:26.402Z,26.23
2019-05-06T19:45:34.364Z,24.60
2019-05-06T19:46:38.760Z,21.73
2019-05-06T19:47:52.359Z,18.07
2019-05-06T19:49:03.446Z,17.15
2019-05-06T19:50:09.580Z,17.75
2019-05-06T19:51:14.601Z,17.35
2019-05-06T19:52:19.380Z,18.37
2019-05-06T19:53:29.085Z,21.27
2019-05-06T19:54:37.720Z,20.77
2019-05-06T19:55:47.085Z,28.25
2019-05-06T19:56:58.705Z,16.45
2019-05-06T19:58:06.331Z,13.48
2019-05-06T19:59:12.929Z,13.80
2019-05-06T20:00:32.475Z,12.80
2019-05-06T20:01:28.587Z,13.32
2019-05-06T20:02:35.989Z,13.05
2019-05-06T20:03:41.078Z,16.05
2019-05-06T20:04:48.360Z,15.38
2019-05-06T20:06:28.691Z,12.50
2019-05-06T20:07:44.080Z,14.15
2019-05-06T20:09:02.399Z,12.45
2019-05-06T20:10:26.355Z,13.45
2019-05-06T20:11:42.474Z,12.65
2019-05-06T20:12:59.439Z,19.90
2019-05-06T20:13:57.163Z,14.53
2019-05-06T20:15:19.721Z,17.02
2019-05-06T20:16:27.639Z,12.60
2019-05-06T20:17:33.068Z,14.30
2019-05-06T20:18:42.304Z,13.65
2019-05-06T20:19:51.800Z,13.15
2019-05-06T20:20:54.906Z,11.40
2019-05-06T20:22:01.860Z,12.88
2019-05-06T20:23:08.653Z,13.13
2019-05-06T20:24:13.488Z,15.13
2019-05-06T20:25:18.209Z,12.75
2019-05-06T20:26:26.620Z,13.45
2019-05-06T20:27:32.430Z,13.28
2019-05-06T20:28:37.899Z,12.85
2019-05-06T20:29:46.592Z,14.47
2019-05-06T20:30:52.871Z,13.48
2019-05-06T20:31:58.118Z,13.30
2019-05-06T20:33:06.181Z,13.95
2019-05-06T20:34:12.841Z,12.60
2019-05-06T20:35:18.131Z,12.35
2019-05-06T20:36:24.101Z,12.00
2019-05-06T20:37:33.297Z,12.75
2019-05-06T20:38:38.217Z,12.78
2019-05-06T20:39:54.521Z,12.03
2019-05-06T20:40:58.374Z,14.00
2019-05-06T20:42:04.163Z,12.75
2019-05-06T20:43:17.427Z,12.10
2019-05-06T20:44:20.322Z,12.30
2019-05-06T20:45:25.304Z,10.75
2019-05-06T20:46:32.285Z,12.95
2019-05-06T20:47:37.225Z,12.07
2019-05-06T20:48:44.868Z,12.53
2019-05-06T20:49:52.486Z,12.90
2019-05-06T20:50:59.924Z,12.58
2019-05-06T20:52:07.975Z,12.28
2019-05-06T20:53:13.203Z,12.85
2019-05-06T20:54:23.539Z,12.60
2019-05-06T20:55:27.285Z,12.80
2019-05-06T20:56:32.738Z,12.88
2019-05-06T20:57:38.101Z,11.83
2019-05-06T20:58:42.979Z,10.98
2019-05-06T20:59:48.178Z,12.85
2019-05-06T21:00:55.401Z,13.50
2019-05-06T21:02:00.192Z,12.58
2019-05-06T21:03:04.979Z,12.23
2019-05-06T21:04:12.904Z,12.80
2019-05-06T21:05:25.248Z,12.40
2019-05-06T21:06:32.025Z,13.22
2019-05-06T21:07:36.318Z,11.85
2019-05-06T21:08:44.938Z,13.80
2019-05-06T21:09:49.637Z,17.62
2019-05-06T21:10:55.293Z,14.68
2019-05-06T21:12:04.851Z,13.00
2019-05-06T21:13:28.672Z,12.65
2019-05-06T21:14:23.718Z,14.53
2019-05-06T21:15:28.769Z,11.88
2019-05-06T21:16:34.583Z,13.85
2019-05-06T21:17:41.968Z,13.45
2019-05-06T21:18:48.416Z,12.98
2019-05-06T21:19:53.207Z,13.10
2019-05-06T21:20:58.693Z,11.80
2019-05-06T21:22:05.841Z,11.95
2019-05-06T21:23:12.042Z,12.25
2019-05-06T21:24:22.458Z,12.60
2019-05-06T21:25:25.440Z,12.25
2019-05-06T21:26:33.132Z,13.10
2019-05-06T21:27:38.089Z,13.22
2019-05-06T21:28:46.381Z,11.43
2019-05-06T21:29:52.707Z,13.00
2019-05-06T21:30:57.691Z,12.75
2019-05-06T21:32:04.081Z,11.80
2019-05-06T21:33:08.818Z,10.78
2019-05-06T21:34:15.236Z,11.70
2019-05-06T21:35:22.084Z,12.88
2019-05-06T21:36:26.258Z,12.65
2019-05-06T21:37:34.101Z,12.60
2019-05-06T21:38:39.069Z,13.40
2019-05-06T21:39:43.759Z,13.15
2019-05-06T21:40:48.417Z,12.35
2019-05-06T21:41:58.876Z,11.63
2019-05-06T21:43:03.900Z,13.65
2019-05-06T21:44:10.555Z,12.10
2019-05-06T21:45:19.602Z,11.53
2019-05-06T21:46:24.417Z,11.57
2019-05-06T21:47:29.117Z,12.65
2019-05-06T21:48:35.748Z,12.00
2019-05-06T21:49:42.278Z,12.40
2019-05-06T21:50:52.075Z,12.23
2019-05-06T21:51:56.683Z,11.08
2019-05-06T21:53:02.867Z,13.25
2019-05-06T21:54:12.595Z,14.10
2019-05-06T21:55:16.708Z,11.90
2019-05-06T21:56:22.619Z,14.23
2019-05-06T21:57:27.413Z,12.28
2019-05-06T21:58:32.311Z,13.28
2019-05-06T21:59:42.615Z,12.63
2019-05-06T22:00:55.040Z,13.13
2019-05-06T22:02:00.177Z,12.47
2019-05-06T22:03:05.311Z,13.20
2019-05-06T22:04:12.749Z,13.28
2019-05-06T22:05:18.101Z,13.48
2019-05-06T22:06:26.194Z,12.30
2019-05-06T22:07:35.896Z,12.70
2019-05-06T22:08:42.411Z,14.13
2019-05-06T22:09:47.273Z,14.05
2019-05-06T22:10:52.922Z,13.85
2019-05-06T22:12:02.471Z,12.10
2019-05-06T22:13:07.240Z,14.15
2019-05-06T22:14:12.490Z,13.72
2019-05-06T22:15:17.558Z,14.20
2019-05-06T22:16:23.028Z,14.40
2019-05-06T22:17:28.114Z,13.22
2019-05-06T22:18:33.055Z,14.95
2019-05-06T22:19:40.159Z,14.65
2019-05-06T22:21:02.910Z,14.35
2019-05-06T22:22:09.525Z,14.87
2019-05-06T22:23:17.630Z,14.58
2019-05-06T22:24:26.028Z,13.38
2019-05-06T22:25:33.857Z,14.13
2019-05-06T22:26:43.191Z,14.18
2019-05-06T22:27:51.948Z,14.83
2019-05-06T22:29:02.066Z,13.58
2019-05-06T22:30:07.485Z,13.80
2019-05-06T22:31:12.490Z,13.65
2019-05-06T22:32:17.505Z,14.68
2019-05-06T22:33:22.460Z,14.00
2019-05-06T22:34:32.928Z,14.35
2019-05-06T22:35:39.517Z,14.73
2019-05-06T22:36:44.491Z,14.25
2019-05-06T22:37:49.141Z,14.58
2019-05-06T22:38:54.080Z,14.07
2019-05-06T22:39:59.185Z,14.18
2019-05-06T22:41:03.947Z,13.95
2019-05-06T22:42:08.679Z,14.23
2019-05-06T22:43:13.675Z,14.95
2019-05-06T22:44:18.320Z,16.25
2019-05-06T22:45:23.325Z,14.95
2019-05-06T22:46:32.779Z,14.53
2019-05-06T22:47:42.105Z,14.03
2019-05-06T22:48:47.273Z,15.23
2019-05-06T22:49:55.318Z,14.15
2019-05-06T22:51:00.021Z,14.58
2019-05-06T22:52:06.309Z,15.75
2019-05-06T22:53:13.027Z,15.50
2019-05-06T22:54:17.549Z,14.75
2019-05-06T22:55:22.529Z,15.20
2019-05-06T22:56:27.235Z,16.87
2019-05-06T22:57:59.393Z,14.87
2019-05-06T22:59:04.147Z,17.67
2019-05-06T23:00:12.217Z,14.93
2019-05-06T23:01:54.581Z,15.45
2019-05-06T23:03:05.109Z,14.20
2019-05-06T23:04:10.075Z,14.70
2019-05-06T23:05:14.884Z,16.62
2019-05-06T23:06:19.581Z,15.20
2019-05-06T23:07:33.568Z,17.00
2019-05-06T23:08:38.396Z,15.80
2019-05-06T23:09:52.236Z,14.55
2019-05-06T23:10:56.957Z,15.00
2019-05-06T23:12:02.468Z,15.68
2019-05-06T23:13:13.076Z,16.50
2019-05-06T23:14:28.958Z,16.57
2019-05-06T23:15:23.658Z,16.42
2019-05-06T23:16:28.300Z,16.60
2019-05-06T23:17:34.414Z,14.83
2019-05-06T23:18:39.149Z,16.97
2019-05-06T23:19:44.243Z,15.28
2019-05-06T23:20:49.147Z,17.70
2019-05-06T23:21:53.938Z,15.93
2019-05-06T23:22:58.672Z,17.27
2019-05-06T23:24:03.573Z,16.87
2019-05-06T23:25:08.928Z,15.93
2019-05-06T23:26:18.156Z,16.30
2019-05-06T23:27:23.360Z,17.20
2019-05-06T23:28:28.166Z,16.85
2019-05-06T23:29:33.076Z,16.87
2019-05-06T23:30:37.755Z,17.32
2019-05-06T23:31:43.343Z,17.40
2019-05-06T23:32:48.062Z,17.00
2019-05-06T23:33:53.511Z,15.78
2019-05-06T23:34:58.273Z,16.93
2019-05-06T23:36:03.003Z,17.85
2019-05-06T23:37:27.423Z,16.52
2019-05-06T23:39:07.627Z,17.02
2019-05-06T23:40:48.222Z,17.45
2019-05-06T23:42:28.906Z,16.37
2019-05-06T23:44:09.321Z,17.07
2019-05-06T23:45:49.305Z,16.27
2019-05-06T23:47:29.600Z,17.20
2019-05-06T23:49:09.275Z,16.52
2019-05-06T23:50:49.412Z,17.67
2019-05-06T23:52:29.407Z,16.57
2019-05-06T23:54:12.529Z,17.37
2019-05-06T23:55:52.410Z,16.20
2019-05-06T23:56:55.318Z,17.48
2019-05-06T23:57:58.223Z,17.17
2019-05-06T23:59:03.196Z,17.87
